createdAt,value
2023-06-04T00:02:11.637Z,1.70
2023-06-04T00:04:38.828Z,1.90
2023-06-04T00:07:06.198Z,2.20
2023-06-04T00:09:33.311Z,2.58
2023-06-04T00:12:00.615Z,2.85
2023-06-04T00:14:27.796Z,2.40
2023-06-04T00:16:54.898Z,1.92
2023-06-04T00:19:22.296Z,2.28
2023-06-04T00:21:49.496Z,2.13
2023-06-04T00:24:16.627Z,1.98
2023-06-04T00:26:43.774Z,1.85
2023-06-04T00:29:10.998Z,1.90
2023-06-04T00:31:38.145Z,2.03
2023-06-04T00:34:06.133Z,1.80
2023-06-04T00:36:33.227Z,1.40
2023-06-04T00:39:00.613Z,1.50
2023-06-04T00:41:27.886Z,1.70
2023-06-04T00:43:57.823Z,1.50
2023-06-04T00:46:29.311Z,1.98
2023-06-04T00:48:56.613Z,2.00
2023-06-04T00:51:24.116Z,1.40
2023-06-04T00:53:51.483Z,1.58
2023-06-04T00:56:18.656Z,1.50
2023-06-04T00:58:46.463Z,1.65
2023-06-04T01:01:28.591Z,1.67
2023-06-04T01:03:57.095Z,1.50
2023-06-04T01:06:24.217Z,1.40
2023-06-04T01:08:55.408Z,1.60
2023-06-04T01:11:52.234Z,1.30
2023-06-04T01:14:19.565Z,1.48
2023-06-04T01:16:49.012Z,1.45
2023-06-04T01:19:25.879Z,1.40
2023-06-04T01:21:54.467Z,2.10
2023-06-04T01:24:23.274Z,1.58
2023-06-04T01:26:51.073Z,1.50
2023-06-04T01:29:18.649Z,1.73
2023-06-04T01:31:46.180Z,2.03
2023-06-04T01:34:13.309Z,2.00
2023-06-04T01:36:40.462Z,1.70
2023-06-04T01:39:07.574Z,1.67
2023-06-04T01:41:34.688Z,1.50
2023-06-04T01:44:01.841Z,1.73
2023-06-04T01:46:29.050Z,1.52
2023-06-04T01:48:56.227Z,1.40
2023-06-04T01:51:23.348Z,1.50
2023-06-04T01:53:50.403Z,1.70
2023-06-04T01:56:17.517Z,1.65
2023-06-04T01:58:44.619Z,1.70
2023-06-04T02:01:11.760Z,1.77
2023-06-04T02:03:38.963Z,1.73
2023-06-04T02:06:08.815Z,1.92
2023-06-04T02:08:36.559Z,1.80
2023-06-04T02:11:03.728Z,1.50
2023-06-04T02:13:30.866Z,1.80
2023-06-04T02:15:58.021Z,1.77
2023-06-04T02:18:25.944Z,1.80
2023-06-04T02:20:53.132Z,1.88
2023-06-04T02:23:20.618Z,1.90
2023-06-04T02:25:48.777Z,2.40
2023-06-04T02:28:16.104Z,2.00
2023-06-04T02:30:43.521Z,1.70
2023-06-04T02:33:11.293Z,1.67
2023-06-04T02:35:38.583Z,1.88
2023-06-04T02:38:06.169Z,1.80
2023-06-04T02:40:33.379Z,1.70
2023-06-04T02:43:00.672Z,2.05
2023-06-04T02:45:27.851Z,1.88
2023-06-04T02:47:54.970Z,2.03
2023-06-04T02:50:22.292Z,1.90
2023-06-04T02:52:49.358Z,2.30
2023-06-04T02:55:16.828Z,1.63
2023-06-04T02:57:44.392Z,1.75
2023-06-04T03:00:15.441Z,1.85
2023-06-04T03:02:43.558Z,2.30
2023-06-04T03:05:14.224Z,1.85
2023-06-04T03:10:09.938Z,1.75
2023-06-04T03:12:37.170Z,1.92
2023-06-04T03:15:04.612Z,2.13
2023-06-04T03:17:32.851Z,2.00
2023-06-04T03:20:00.002Z,1.83
2023-06-04T03:22:27.170Z,2.00
2023-06-04T03:24:54.354Z,1.42
2023-06-04T03:27:21.577Z,1.80
2023-06-04T03:29:49.228Z,1.98
2023-06-04T03:32:17.253Z,1.77
2023-06-04T03:34:44.607Z,1.60
2023-06-04T03:37:11.848Z,2.08
2023-06-04T03:39:38.957Z,2.20
2023-06-04T03:42:06.489Z,1.90
2023-06-04T03:44:33.584Z,1.98
2023-06-04T03:47:00.818Z,1.50
2023-06-04T03:49:28.008Z,2.00
2023-06-04T03:51:56.044Z,1.92
2023-06-04T03:54:23.690Z,1.73
2023-06-04T03:56:50.819Z,1.85
2023-06-04T03:59:17.894Z,2.10
2023-06-04T04:01:45.138Z,1.83
2023-06-04T04:04:12.378Z,2.08
2023-06-04T04:06:39.654Z,1.60
2023-06-04T04:09:07.856Z,1.88
2023-06-04T04:11:35.123Z,1.70
2023-06-04T04:14:02.298Z,1.50
2023-06-04T04:16:29.501Z,1.60
2023-06-04T04:18:56.783Z,1.77
2023-06-04T04:21:24.374Z,1.90
2023-06-04T04:23:52.626Z,2.03
2023-06-04T04:26:19.807Z,1.77
2023-06-04T04:28:47.001Z,1.40
2023-06-04T04:31:14.210Z,1.67
2023-06-04T04:33:41.380Z,1.50
2023-06-04T04:36:14.125Z,1.48
2023-06-04T04:38:41.676Z,1.58
2023-06-04T04:41:09.609Z,1.55
2023-06-04T04:43:38.620Z,1.60
2023-06-04T04:46:06.043Z,1.42
2023-06-04T04:48:33.368Z,1.70
2023-06-04T04:51:00.635Z,2.13
2023-06-04T04:53:28.610Z,2.00
2023-06-04T04:55:55.713Z,2.15
2023-06-04T04:58:22.866Z,1.70
2023-06-04T05:00:50.054Z,1.98
2023-06-04T05:03:17.139Z,2.00
2023-06-04T05:05:44.830Z,1.65
2023-06-04T05:08:12.046Z,1.55
2023-06-04T05:10:39.157Z,1.67
2023-06-04T05:13:07.351Z,1.60
2023-06-04T05:15:34.681Z,1.67
2023-06-04T05:18:02.204Z,1.88
2023-06-04T05:20:29.415Z,1.90
2023-06-04T05:22:56.564Z,1.95
2023-06-04T05:25:23.871Z,1.80
2023-06-04T05:27:51.479Z,1.60
2023-06-04T05:30:18.667Z,1.75
2023-06-04T05:32:45.850Z,1.60
2023-06-04T05:35:12.998Z,1.70
2023-06-04T05:37:43.087Z,1.63
2023-06-04T05:40:10.873Z,1.63
2023-06-04T05:42:38.033Z,1.92
2023-06-04T05:45:05.616Z,1.58
2023-06-04T05:47:32.766Z,1.75
2023-06-04T05:49:59.922Z,1.80
2023-06-04T05:52:27.012Z,1.73
2023-06-04T05:54:54.190Z,1.65
2023-06-04T05:57:22.129Z,1.90
2023-06-04T05:59:49.304Z,1.73
2023-06-04T06:02:16.477Z,1.83
2023-06-04T06:04:43.687Z,1.65
2023-06-04T06:07:10.965Z,2.13
2023-06-04T06:09:38.119Z,1.30
2023-06-04T06:12:06.588Z,1.80
2023-06-04T06:14:33.789Z,1.73
2023-06-04T06:17:04.265Z,1.63
2023-06-04T06:21:59.694Z,1.90
2023-06-04T06:24:26.880Z,1.60
2023-06-04T06:26:53.993Z,1.35
2023-06-04T06:29:21.788Z,1.90
2023-06-04T06:31:49.081Z,1.27
2023-06-04T06:34:16.285Z,1.40
2023-06-04T06:36:43.727Z,1.52
2023-06-04T06:39:11.506Z,1.63
2023-06-04T06:41:39.709Z,1.50
2023-06-04T06:44:07.035Z,1.60
2023-06-04T06:46:34.266Z,1.48
2023-06-04T06:49:01.450Z,1.60
2023-06-04T06:51:28.548Z,1.65
2023-06-04T06:53:55.824Z,1.75
2023-06-04T06:56:23.200Z,1.80
2023-06-04T06:58:50.586Z,1.45
2023-06-04T07:01:17.690Z,1.23
2023-06-04T07:03:44.846Z,1.50
2023-06-04T07:06:11.944Z,1.65
2023-06-04T07:08:39.073Z,1.27
2023-06-04T07:11:06.479Z,1.52
2023-06-04T07:13:36.026Z,1.80
2023-06-04T07:16:03.660Z,1.33
2023-06-04T07:18:30.761Z,1.40
2023-06-04T07:20:58.014Z,1.50
2023-06-04T07:23:25.154Z,1.50
2023-06-04T07:25:52.621Z,1.17
2023-06-04T07:28:19.788Z,1.30
2023-06-04T07:30:47.292Z,1.17
2023-06-04T07:33:14.442Z,1.55
2023-06-04T07:35:41.640Z,1.42
2023-06-04T07:38:08.701Z,1.42
2023-06-04T07:40:35.814Z,1.50
2023-06-04T07:43:02.968Z,1.38
2023-06-04T07:45:33.299Z,1.42
2023-06-04T07:48:03.059Z,1.50
2023-06-04T07:50:33.084Z,1.40
2023-06-04T07:53:01.966Z,1.20
2023-06-04T07:55:29.104Z,1.75
2023-06-04T07:57:56.214Z,1.30
2023-06-04T08:00:23.530Z,1.00
2023-06-04T08:02:51.728Z,1.52
2023-06-04T08:05:18.948Z,1.38
2023-06-04T08:07:46.230Z,1.45
2023-06-04T08:10:13.327Z,1.10
2023-06-04T08:12:40.529Z,1.05
2023-06-04T08:15:08.430Z,1.30
2023-06-04T08:17:35.638Z,1.60
2023-06-04T08:20:02.816Z,1.50
2023-06-04T08:22:30.246Z,1.40
2023-06-04T08:24:57.355Z,1.38
2023-06-04T08:27:24.517Z,1.33
2023-06-04T08:29:53.081Z,1.63
2023-06-04T08:32:20.249Z,1.60
2023-06-04T08:34:47.399Z,1.23
2023-06-04T08:37:14.537Z,1.50
2023-06-04T08:39:41.710Z,1.27
2023-06-04T08:42:08.868Z,1.60
2023-06-04T08:44:36.245Z,1.30
2023-06-04T08:47:07.265Z,1.45
2023-06-04T08:49:38.460Z,1.20
2023-06-04T08:52:07.163Z,1.30
2023-06-04T08:54:34.496Z,1.60
2023-06-04T08:57:02.189Z,1.33
2023-06-04T08:59:29.398Z,1.10
2023-06-04T09:01:56.491Z,1.20
2023-06-04T09:04:23.650Z,1.48
2023-06-04T09:06:50.775Z,1.38
2023-06-04T09:09:18.621Z,1.42
2023-06-04T09:11:45.689Z,1.40
2023-06-04T09:14:13.334Z,1.15
2023-06-04T09:16:50.549Z,1.50
2023-06-04T09:19:18.195Z,1.45
2023-06-04T09:21:52.422Z,1.60
2023-06-04T09:24:20.109Z,1.45
2023-06-04T09:26:47.277Z,1.25
2023-06-04T09:29:14.451Z,1.60
2023-06-04T09:31:41.670Z,1.30
2023-06-04T09:34:09.078Z,1.45
2023-06-04T09:36:36.626Z,1.70
2023-06-04T09:39:04.515Z,1.60
2023-06-04T09:41:31.679Z,1.50
2023-06-04T09:44:04.042Z,1.50
2023-06-04T09:46:32.071Z,1.58
2023-06-04T09:49:06.149Z,1.33
2023-06-04T09:51:33.421Z,1.73
2023-06-04T09:54:01.422Z,1.83
2023-06-04T09:56:28.706Z,1.55
2023-06-04T09:58:56.858Z,1.50
2023-06-04T10:01:25.208Z,1.60
2023-06-04T10:03:53.669Z,1.45
2023-06-04T10:06:22.160Z,1.73
2023-06-04T10:08:50.508Z,1.35
2023-06-04T10:11:19.392Z,1.60
2023-06-04T10:13:55.459Z,1.23
2023-06-04T10:16:33.488Z,1.15
2023-06-04T10:19:01.986Z,1.10
2023-06-04T10:21:29.161Z,1.40
2023-06-04T10:23:56.529Z,1.30
2023-06-04T10:26:24.054Z,1.50
2023-06-04T10:28:51.601Z,1.85
2023-06-04T10:31:18.760Z,1.52
2023-06-04T10:33:45.934Z,1.40
2023-06-04T10:36:22.652Z,1.75
2023-06-04T10:38:50.022Z,1.30
2023-06-04T10:41:17.496Z,1.50
2023-06-04T10:43:45.210Z,1.58
2023-06-04T10:46:15.684Z,1.60
2023-06-04T10:48:49.648Z,1.70
2023-06-04T10:51:17.190Z,1.48
2023-06-04T10:53:44.465Z,1.65
2023-06-04T10:56:11.720Z,1.55
2023-06-04T10:58:38.961Z,1.92
2023-06-04T11:01:06.253Z,1.55
2023-06-04T11:03:37.488Z,1.67
2023-06-04T11:06:05.015Z,1.65
2023-06-04T11:08:32.270Z,1.58
2023-06-04T11:10:59.391Z,1.70
2023-06-04T11:13:29.444Z,1.80
2023-06-04T11:15:56.848Z,1.50
2023-06-04T11:18:25.038Z,1.75
2023-06-04T11:20:53.347Z,1.48
2023-06-04T11:23:20.629Z,1.50
2023-06-04T11:25:47.816Z,1.80
2023-06-04T11:28:22.896Z,1.70
2023-06-04T11:31:09.489Z,1.85
2023-06-04T11:33:46.250Z,1.70
2023-06-04T11:36:29.347Z,1.73
2023-06-04T11:38:59.678Z,2.60
2023-06-04T11:41:33.151Z,2.60
2023-06-04T11:44:07.033Z,2.00
2023-06-04T11:46:35.860Z,2.17
2023-06-04T11:49:06.280Z,2.25
2023-06-04T11:51:33.598Z,1.70
2023-06-04T11:54:00.857Z,1.77
2023-06-04T11:56:28.092Z,1.67
2023-06-04T11:58:58.030Z,1.65
2023-06-04T12:01:29.625Z,1.92
2023-06-04T12:03:56.744Z,3.90
2023-06-04T12:06:24.083Z,3.90
2023-06-04T12:08:54.857Z,2.10
2023-06-04T12:11:35.061Z,2.03
2023-06-04T12:14:06.812Z,2.67
2023-06-04T12:16:35.906Z,3.70
2023-06-04T12:19:12.753Z,3.55
2023-06-04T12:21:44.240Z,1.98
2023-06-04T12:24:11.860Z,2.80
2023-06-04T12:26:41.528Z,2.00
2023-06-04T12:29:11.117Z,2.03
2023-06-04T12:31:38.729Z,1.85
2023-06-04T12:34:06.042Z,2.08
2023-06-04T12:36:35.099Z,1.85
2023-06-04T12:39:03.058Z,1.92
2023-06-04T12:41:30.383Z,1.85
2023-06-04T12:43:57.577Z,2.20
2023-06-04T12:46:24.900Z,2.00
2023-06-04T12:48:52.647Z,1.70
2023-06-04T12:51:19.849Z,1.65
2023-06-04T12:53:46.966Z,2.13
2023-06-04T12:56:14.114Z,1.88
2023-06-04T12:58:41.496Z,1.92
2023-06-04T13:01:08.957Z,2.00
2023-06-04T13:03:38.530Z,2.13
2023-06-04T13:06:06.811Z,2.40
2023-06-04T13:08:34.391Z,2.05
2023-06-04T13:11:01.715Z,1.90
2023-06-04T13:13:29.240Z,2.10
2023-06-04T13:15:56.554Z,2.13
2023-06-04T13:18:24.062Z,2.17
2023-06-04T13:20:51.446Z,1.88
2023-06-04T13:23:18.667Z,2.20
2023-06-04T13:25:45.895Z,2.03
2023-06-04T13:28:13.093Z,2.78
2023-06-04T13:30:40.863Z,2.10
2023-06-04T13:33:08.196Z,2.25
2023-06-04T13:35:35.445Z,2.10
2023-06-04T13:38:04.099Z,2.10
2023-06-04T13:40:31.281Z,2.30
2023-06-04T13:42:58.522Z,2.92
2023-06-04T13:45:25.605Z,2.20
2023-06-04T13:47:55.251Z,2.38
2023-06-04T13:50:22.613Z,2.65
2023-06-04T13:52:49.748Z,2.63
2023-06-04T13:55:16.900Z,2.30
2023-06-04T13:57:43.965Z,2.05
2023-06-04T14:00:11.354Z,2.35
2023-06-04T14:02:38.571Z,2.60
2023-06-04T14:05:06.582Z,2.40
2023-06-04T14:07:33.725Z,2.20
2023-06-04T14:10:00.821Z,2.88
2023-06-04T14:12:27.897Z,2.50
2023-06-04T14:14:55.035Z,2.70
2023-06-04T14:17:22.254Z,2.58
2023-06-04T14:19:49.469Z,2.80
2023-06-04T14:22:16.603Z,2.80
2023-06-04T14:24:43.756Z,2.30
2023-06-04T14:27:11.261Z,2.85
2023-06-04T14:29:41.155Z,2.40
2023-06-04T14:32:08.633Z,2.65
2023-06-04T14:34:36.039Z,2.63
2023-06-04T14:37:03.206Z,2.30
2023-06-04T14:39:30.298Z,2.60
2023-06-04T14:41:57.372Z,2.13
2023-06-04T14:44:24.524Z,2.50
2023-06-04T14:46:52.218Z,2.50
2023-06-04T14:49:19.539Z,2.30
2023-06-04T14:51:47.660Z,2.72
2023-06-04T14:54:14.822Z,2.50
2023-06-04T14:56:42.037Z,2.60
2023-06-04T14:59:12.311Z,2.47
2023-06-04T15:01:43.448Z,3.28
2023-06-04T15:04:10.764Z,3.72
2023-06-04T15:06:37.956Z,3.83
2023-06-04T15:09:05.187Z,4.20
2023-06-04T15:11:32.255Z,3.03
2023-06-04T15:13:59.424Z,3.03
2023-06-04T15:16:26.579Z,2.33
2023-06-04T15:18:53.899Z,3.42
2023-06-04T15:21:21.072Z,1.90
2023-06-04T15:23:49.625Z,2.17
2023-06-04T15:26:17.731Z,1.80
2023-06-04T15:28:44.952Z,1.98
2023-06-04T15:31:12.144Z,1.58
2023-06-04T15:33:39.337Z,2.67
2023-06-04T15:36:06.876Z,5.30
2023-06-04T15:38:34.463Z,4.80
2023-06-04T15:41:01.625Z,3.50
2023-06-04T15:43:28.798Z,2.20
2023-06-04T15:45:56.011Z,3.40
2023-06-04T15:48:23.316Z,1.88
2023-06-04T15:50:50.869Z,1.50
2023-06-04T15:53:19.072Z,3.50
2023-06-04T15:55:46.267Z,3.10
2023-06-04T15:58:13.392Z,2.13
2023-06-04T16:00:40.612Z,2.22
2023-06-04T16:03:07.815Z,2.53
2023-06-04T16:05:34.911Z,2.00
2023-06-04T16:08:01.970Z,1.35
2023-06-04T16:10:29.093Z,1.92
2023-06-04T16:12:56.213Z,1.75
2023-06-04T16:15:23.367Z,2.08
2023-06-04T16:17:50.656Z,1.98
2023-06-04T16:20:17.859Z,1.88
2023-06-04T16:22:44.946Z,1.55
2023-06-04T16:25:12.042Z,1.75
2023-06-04T16:27:39.115Z,1.45
2023-06-04T16:30:06.622Z,1.52
2023-06-04T16:32:33.804Z,1.35
2023-06-04T16:35:03.064Z,2.30
2023-06-04T16:37:31.237Z,1.73
2023-06-04T16:39:58.368Z,1.98
2023-06-04T16:42:25.950Z,2.03
2023-06-04T16:44:53.109Z,1.85
2023-06-04T16:47:20.258Z,2.05
2023-06-04T16:49:47.571Z,2.00
2023-06-04T16:52:14.684Z,1.55
2023-06-04T16:54:43.046Z,1.60
2023-06-04T16:57:10.522Z,1.90
2023-06-04T16:59:37.617Z,1.85
2023-06-04T17:02:05.540Z,1.90
2023-06-04T17:04:32.919Z,1.65
2023-06-04T17:06:59.991Z,2.20
2023-06-04T17:09:27.130Z,2.17
2023-06-04T17:11:54.243Z,1.50
2023-06-04T17:14:21.361Z,1.20
2023-06-04T17:16:48.597Z,1.70
2023-06-04T17:19:16.043Z,1.63
2023-06-04T17:21:43.124Z,1.40
2023-06-04T17:24:10.453Z,1.40
2023-06-04T17:26:37.666Z,1.27
2023-06-04T17:29:05.301Z,2.25
2023-06-04T17:31:32.632Z,2.45
2023-06-04T17:33:59.792Z,1.50
2023-06-04T17:36:27.792Z,1.40
2023-06-04T17:38:54.923Z,2.30
2023-06-04T17:41:21.991Z,1.40
2023-06-04T17:43:50.184Z,1.60
2023-06-04T17:46:17.338Z,1.35
2023-06-04T17:48:44.420Z,1.45
2023-06-04T17:51:11.589Z,1.38
2023-06-04T17:53:38.698Z,1.80
2023-06-04T17:56:05.975Z,1.58
2023-06-04T17:58:33.335Z,1.40
2023-06-04T18:01:00.465Z,1.35
2023-06-04T18:03:27.623Z,1.30
2023-06-04T18:05:54.706Z,1.70
2023-06-04T18:08:22.205Z,1.35
2023-06-04T18:10:49.341Z,1.40
2023-06-04T18:13:16.452Z,1.30
2023-06-04T18:15:44.149Z,1.40
2023-06-04T18:18:11.341Z,1.65
2023-06-04T18:20:38.524Z,1.48
2023-06-04T18:23:06.276Z,2.53
2023-06-04T18:25:33.460Z,1.52
2023-06-04T18:28:00.644Z,1.40
2023-06-04T18:30:27.819Z,1.63
2023-06-04T18:32:55.104Z,1.50
2023-06-04T18:35:22.227Z,1.60
2023-06-04T18:37:49.313Z,2.00
2023-06-04T18:40:18.137Z,2.30
2023-06-04T18:42:45.927Z,2.13
2023-06-04T18:45:14.567Z,1.60
2023-06-04T18:47:41.798Z,1.73
2023-06-04T18:50:09.089Z,1.85
2023-06-04T18:52:39.239Z,1.80
2023-06-04T18:57:33.406Z,1.38
2023-06-04T19:00:00.535Z,1.60
2023-06-04T19:02:27.743Z,1.63
2023-06-04T19:04:54.833Z,1.60
2023-06-04T19:07:22.028Z,2.20
2023-06-04T19:09:49.169Z,1.73
2023-06-04T19:12:16.459Z,2.00
2023-06-04T19:14:43.600Z,1.80
2023-06-04T19:17:10.697Z,1.70
2023-06-04T19:19:37.802Z,1.60
2023-06-04T19:22:05.064Z,1.42
2023-06-04T19:24:32.898Z,1.33
2023-06-04T19:27:00.024Z,1.52
2023-06-04T19:29:27.130Z,1.23
2023-06-04T19:31:54.322Z,1.50
2023-06-04T19:34:21.488Z,1.80
2023-06-04T19:36:48.635Z,1.60
2023-06-04T19:39:15.732Z,1.10
2023-06-04T19:41:42.824Z,1.15
2023-06-04T19:44:09.958Z,1.40
2023-06-04T19:46:37.114Z,1.45
2023-06-04T19:49:04.275Z,1.40
2023-06-04T19:51:31.533Z,1.50
2023-06-04T19:53:58.677Z,1.30
2023-06-04T19:56:26.600Z,1.20
2023-06-04T19:58:53.697Z,1.40
2023-06-04T20:01:20.854Z,1.63
2023-06-04T20:03:48.533Z,1.60
2023-06-04T20:06:15.690Z,1.30
2023-06-04T20:08:44.228Z,1.65
2023-06-04T20:11:13.570Z,1.50
2023-06-04T20:13:41.811Z,1.70
2023-06-04T20:16:09.274Z,1.48
2023-06-04T20:18:36.981Z,1.45
2023-06-04T20:21:04.150Z,1.67
2023-06-04T20:23:31.744Z,1.38
2023-06-04T20:26:00.412Z,1.20
2023-06-04T20:28:28.644Z,1.30
2023-06-04T20:30:55.861Z,1.70
2023-06-04T20:33:23.080Z,1.58
2023-06-04T20:35:50.557Z,1.50
2023-06-04T20:38:17.688Z,1.20
2023-06-04T20:40:44.782Z,1.60
2023-06-04T20:43:12.070Z,1.30
2023-06-04T20:45:39.164Z,1.27
2023-06-04T20:48:06.329Z,1.33
2023-06-04T20:50:33.452Z,1.70
2023-06-04T20:53:00.630Z,1.90
2023-06-04T20:55:27.915Z,1.75
2023-06-04T20:57:55.117Z,2.15
2023-06-04T21:00:22.293Z,1.88
2023-06-04T21:02:49.414Z,2.15
2023-06-04T21:05:16.554Z,2.00
2023-06-04T21:07:43.655Z,2.20
2023-06-04T21:10:11.169Z,1.85
2023-06-04T21:12:38.327Z,1.58
2023-06-04T21:15:05.761Z,1.60
2023-06-04T21:17:32.945Z,1.92
2023-06-04T21:20:00.210Z,1.40
2023-06-04T21:22:27.366Z,1.80
2023-06-04T21:24:54.628Z,1.80
2023-06-04T21:27:21.784Z,1.80
2023-06-04T21:29:48.882Z,1.50
2023-06-04T21:32:15.992Z,1.17
2023-06-04T21:34:43.134Z,1.25
2023-06-04T21:37:10.533Z,1.60
2023-06-04T21:39:37.661Z,1.52
2023-06-04T21:42:04.899Z,1.92
2023-06-04T21:44:32.031Z,1.90
2023-06-04T21:46:59.617Z,1.55
2023-06-04T21:49:26.779Z,2.08
2023-06-04T21:51:53.911Z,1.88
2023-06-04T21:54:21.026Z,1.98
2023-06-04T21:56:48.319Z,1.50
2023-06-04T21:59:15.383Z,1.27
2023-06-04T22:01:42.926Z,1.60
2023-06-04T22:04:10.086Z,1.35
2023-06-04T22:06:37.704Z,1.58
2023-06-04T22:09:05.030Z,1.70
2023-06-04T22:11:32.186Z,1.15
2023-06-04T22:13:59.358Z,1.60
2023-06-04T22:16:26.551Z,1.90
2023-06-04T22:18:54.162Z,2.50
2023-06-04T22:21:21.671Z,2.00
2023-06-04T22:23:49.029Z,3.28
2023-06-04T22:26:28.345Z,4.68
2023-06-04T22:29:03.173Z,2.90
2023-06-04T22:31:30.647Z,1.80
2023-06-04T22:33:57.851Z,1.75
2023-06-04T22:36:24.953Z,1.50
2023-06-04T22:38:52.127Z,1.20
2023-06-04T22:41:19.241Z,1.23
2023-06-04T22:43:46.343Z,1.40
2023-06-04T22:46:13.501Z,1.60
2023-06-04T22:48:40.833Z,1.50
2023-06-04T22:51:08.808Z,1.20
2023-06-04T22:53:36.061Z,1.27
2023-06-04T22:56:07.567Z,1.20
2023-06-04T22:58:34.922Z,1.13
2023-06-04T23:01:02.161Z,1.35
2023-06-04T23:03:29.351Z,1.40
2023-06-04T23:05:56.501Z,1.30
2023-06-04T23:08:23.661Z,1.13
2023-06-04T23:10:50.851Z,1.20
2023-06-04T23:13:21.122Z,1.27
2023-06-04T23:15:48.183Z,1.23
2023-06-04T23:18:15.382Z,1.88
2023-06-04T23:20:42.486Z,1.50
2023-06-04T23:23:09.604Z,1.48
2023-06-04T23:25:36.719Z,1.38
2023-06-04T23:28:03.835Z,1.45
2023-06-04T23:30:31.339Z,1.40
2023-06-04T23:33:01.391Z,1.10
2023-06-04T23:35:28.570Z,1.55
2023-06-04T23:37:55.607Z,1.45
2023-06-04T23:40:22.781Z,1.60
2023-06-04T23:42:49.941Z,1.50
2023-06-04T23:45:17.065Z,1.50
2023-06-04T23:47:44.238Z,1.20
2023-06-04T23:50:11.682Z,1.30
2023-06-04T23:52:40.135Z,1.10
2023-06-04T23:55:07.871Z,1.30
2023-06-04T23:57:35.037Z,1.55
